Aviation Digital Data Service (ADDS)

Output produced by METARs form (2123 UTC 08 August 2020)
found at http://www.aviationweather.gov/metar/data/
 
TAPA 082100Z 06010KT 9999 SCT021 29/24 Q1016 NOSIG
TAPA 082000Z 07011KT 9999 SCT022 29/24 Q1016 NOSIG
TAPA 081900Z 07013KT 9999 FEW022 30/24 Q1017 NOSIG
TAPA 081800Z 07011KT 9999 SCT022 30/24 Q1017 NOSIG
TAF TAPA 081700Z 0818/0918 07012KT 9999 SCT020
       
TKPK 082100Z 08013KT 9999 SCT017 29/25 Q1016
TKPK 082000Z 08014KT 9999 BKN018 30/25 Q1016
TKPK 081900Z 08013KT 9999 BKN017 30/25 Q1017
TKPK 081800Z 06013KT 9999 SCT017 30/25 Q1017
TKPK 082026Z 0820/0918 08014KT P6SM VCSH SCT018 SCT025 
     TEMPO 0820/0821 BKN018 
     FM082230 07008KT P6SM FEW018 FEW030 
     FM090230 06006KT P6SM VCSH SCT018 SCT035 
     FM091400 08012KT P6SM SCT022 AMD NOT SKED 0902/0911
       
TKPN 082100Z 08019KT 9999 FEW019 30/25 Q1016
TKPN 082000Z 08015KT 9999 FEW018 31/25 Q1016
TKPN 081900Z 09015KT 9999 FEW018 31/25 Q1016
TKPN 081800Z 09015KT 9999 SCT018 31/26 Q1017
TAF TKPN 081700Z 0818/0918 09012KT 9999 SCT020
       
TQPF 082100Z 07012KT 9999 BKN019 29/24 Q1017
TQPF 082000Z 07013KT 9999 SCT020 29/24 Q1017
TQPF 081900Z 09015KT 9999 SCT020 30/23 Q1018
TQPF 081800Z 09015KT 9999 FEW021 30/24 Q1018
TAF TQPF 081700Z 0818/0918 10012KT 9999 SCT020
       
TUPJ 082100Z 10011KT 10SM SCT019 30/24 A3005 RMK Q1017 VIS16KM
TUPJ 082000Z 08011KT 10SM SCT019 31/24 A3006 RMK Q1017 VIS16KM
TUPJ 081900Z 08013KT 10SM SCT020 31/24 A3006 RMK Q1018 VIS16KM
TUPJ 081800Z 09012KT 10SM FEW020 32/24 A3007 RMK Q1018 VIS16KM
TAF TUPJ 081100Z 0812/0912 09012KT 9999 SCT020